createdAt,value
2019-04-07T00:00:38.578Z,99797.47
2019-04-07T00:03:08.182Z,99797.50
2019-04-07T00:05:37.797Z,99796.63
2019-04-07T00:08:07.363Z,99794.45
2019-04-07T00:10:36.989Z,99801.11
2019-04-07T00:13:07.104Z,99793.13
2019-04-07T00:15:36.913Z,99790.51
2019-04-07T00:18:06.666Z,99788.73
2019-04-07T00:20:36.448Z,99792.30
2019-04-07T00:23:05.978Z,99799.81
2019-04-07T00:25:35.447Z,99800.70
2019-04-07T00:28:05.991Z,99798.08
2019-04-07T00:30:36.135Z,99796.73
2019-04-07T00:33:06.353Z,99797.63
2019-04-07T00:35:36.573Z,99794.58
2019-04-07T00:38:05.950Z,99799.45
2019-04-07T00:40:38.175Z,99791.94
2019-04-07T00:43:07.686Z,99795.93
2019-04-07T00:45:37.161Z,99792.42
2019-04-07T00:48:06.903Z,99791.97
2019-04-07T00:50:36.474Z,99788.89
2019-04-07T00:53:06.530Z,99793.30
2019-04-07T00:55:36.381Z,99795.97
2019-04-07T00:58:06.185Z,99793.77
2019-04-07T01:00:37.389Z,99795.53
2019-04-07T01:03:07.291Z,99796.41
2019-04-07T01:05:40.497Z,99790.66
2019-04-07T01:08:08.062Z,99791.98
2019-04-07T01:10:38.059Z,99793.76
2019-04-07T01:13:07.728Z,99794.63
2019-04-07T01:15:37.151Z,99799.05
2019-04-07T01:18:06.644Z,99804.34
2019-04-07T01:20:36.193Z,99799.07
2019-04-07T01:23:05.620Z,99805.23
2019-04-07T01:25:35.741Z,99804.80
2019-04-07T01:28:06.696Z,99807.41
2019-04-07T01:30:37.220Z,99810.92
2019-04-07T01:33:07.569Z,99805.19
2019-04-07T01:35:47.274Z,99807.38
2019-04-07T01:38:08.266Z,99813.54
2019-04-07T01:40:37.935Z,99812.66
2019-04-07T01:43:25.087Z,99813.09
2019-04-07T01:46:05.229Z,99815.28
2019-04-07T01:48:53.267Z,99817.89
2019-04-07T01:51:24.632Z,99812.57
2019-04-07T01:54:06.433Z,99819.17
2019-04-07T01:56:43.735Z,99816.11
2019-04-07T01:59:17.863Z,99819.18
2019-04-07T02:01:49.284Z,99819.18
2019-04-07T02:04:20.458Z,99809.04
2019-04-07T02:06:55.368Z,99813.44
2019-04-07T02:09:43.584Z,99816.08
2019-04-07T02:12:20.312Z,99818.26
2019-04-07T02:14:57.573Z,99822.65
2019-04-07T02:17:28.738Z,99818.69
2019-04-07T02:20:03.796Z,99823.08
2019-04-07T02:22:37.791Z,99822.61
2019-04-07T02:25:11.968Z,99819.97
2019-04-07T02:27:43.066Z,99823.50
2019-04-07T02:30:14.548Z,99823.93
2019-04-07T02:32:48.685Z,99826.57
2019-04-07T02:35:25.948Z,99821.25
2019-04-07T02:37:59.410Z,99827.42
2019-04-07T02:40:42.722Z,99828.28
2019-04-07T02:43:16.850Z,99826.06
2019-04-07T02:45:47.948Z,99823.84
2019-04-07T02:48:35.207Z,99826.91
2019-04-07T02:51:09.659Z,99826.45
2019-04-07T02:53:43.673Z,99829.97
2019-04-07T02:56:17.680Z,99826.44
2019-04-07T02:58:55.081Z,99833.89
2019-04-07T03:01:43.416Z,99827.70
2019-04-07T03:04:15.855Z,99830.30
2019-04-07T03:06:53.522Z,99834.20
2019-04-07T03:09:28.251Z,99833.30
2019-04-07T03:12:12.382Z,99835.94
2019-04-07T03:14:43.628Z,99830.61
2019-04-07T03:17:17.208Z,99832.81
2019-04-07T03:19:48.648Z,99827.95
2019-04-07T03:22:36.742Z,99832.34
2019-04-07T03:25:26.028Z,99828.84
2019-04-07T03:28:06.785Z,99831.03
2019-04-07T03:30:56.588Z,99834.55
2019-04-07T03:33:47.759Z,99837.62
2019-04-07T03:36:42.569Z,99836.77
2019-04-07T03:39:24.466Z,99841.16
2019-04-07T03:41:55.595Z,99839.41
2019-04-07T03:44:36.543Z,99853.92
2019-04-07T03:47:08.606Z,99845.11
2019-04-07T03:49:39.921Z,99846.86
2019-04-07T03:52:14.066Z,99837.18
2019-04-07T03:55:01.413Z,99844.20
2019-04-07T03:57:47.895Z,99837.97
2019-04-07T04:01:05.248Z,99842.38
2019-04-07T04:03:42.350Z,99841.02
2019-04-07T04:06:28.500Z,99841.00
2019-04-07T04:09:00.494Z,99849.75
2019-04-07T04:11:34.255Z,99845.74
2019-04-07T04:14:15.185Z,99851.01
2019-04-07T04:16:46.348Z,99851.00
2019-04-07T04:19:16.883Z,99846.61
2019-04-07T04:21:46.311Z,99847.88
2019-04-07T04:24:16.740Z,99852.70
2019-04-07T04:26:47.643Z,99852.23
2019-04-07T04:29:17.103Z,99857.48
2019-04-07T04:31:47.352Z,99852.16
2019-04-07T04:34:17.356Z,99854.77
2019-04-07T04:36:47.883Z,99849.92
2019-04-07T04:39:19.694Z,99856.50
2019-04-07T04:41:49.133Z,99861.36
2019-04-07T04:44:18.817Z,99859.58
2019-04-07T04:46:48.640Z,99851.67
2019-04-07T04:49:19.706Z,99860.05
2019-04-07T04:51:50.290Z,99860.88
2019-04-07T04:54:19.694Z,99859.13
2019-04-07T04:56:49.152Z,99859.57
2019-04-07T04:59:18.733Z,99859.14
2019-04-07T05:01:48.805Z,99860.05
2019-04-07T05:04:18.227Z,99859.62
2019-04-07T05:06:47.862Z,99872.83
2019-04-07T05:09:18.032Z,99876.80
2019-04-07T05:11:47.611Z,99874.21
2019-04-07T05:14:17.076Z,99875.98
2019-04-07T05:16:46.541Z,99876.94
2019-04-07T05:19:16.332Z,99878.70
2019-04-07T05:21:45.820Z,99883.14
2019-04-07T05:24:15.814Z,99880.98
2019-04-07T05:26:45.589Z,99885.84
2019-04-07T05:29:15.009Z,99886.33
2019-04-07T05:31:44.825Z,99885.02
2019-04-07T05:34:18.604Z,99893.41
2019-04-07T05:36:45.673Z,99895.16
2019-04-07T05:39:15.303Z,99904.88
2019-04-07T05:41:45.065Z,99903.15
2019-04-07T05:44:14.541Z,99902.31
2019-04-07T05:46:43.995Z,99907.66
2019-04-07T05:49:15.777Z,99915.64
2019-04-07T05:51:44.829Z,99910.84
2019-04-07T05:54:16.920Z,99914.39
2019-04-07T05:56:45.956Z,99910.91
2019-04-07T05:59:15.724Z,99920.62
2019-04-07T06:01:45.561Z,99918.47
2019-04-07T06:04:18.392Z,99921.17
2019-04-07T06:06:46.373Z,99920.33
2019-04-07T06:09:18.911Z,99921.69
2019-04-07T06:11:47.615Z,99926.98
2019-04-07T06:14:17.269Z,99932.73
2019-04-07T06:16:46.938Z,99930.56
2019-04-07T06:19:17.053Z,99924.89
2019-04-07T06:21:48.838Z,99922.29
2019-04-07T06:24:20.094Z,99934.22
2019-04-07T06:26:50.301Z,99929.40
2019-04-07T06:29:20.051Z,99934.72
2019-04-07T06:31:49.597Z,99930.78
2019-04-07T06:34:20.066Z,99926.85
2019-04-07T06:36:54.133Z,99926.84
2019-04-07T06:39:21.446Z,99924.22
2019-04-07T06:41:51.306Z,99929.11
2019-04-07T06:44:22.424Z,99925.16
2019-04-07T06:47:02.783Z,99933.11
2019-04-07T06:49:44.717Z,99930.91
2019-04-07T06:52:38.764Z,99931.78
2019-04-07T06:55:22.720Z,99925.60
2019-04-07T06:58:01.965Z,99932.68
2019-04-07T07:00:36.450Z,99930.02
2019-04-07T07:03:19.786Z,99928.27
2019-04-07T07:06:08.446Z,99937.06
2019-04-07T07:08:46.113Z,99930.00
2019-04-07T07:11:28.866Z,99937.46
2019-04-07T07:14:16.218Z,99932.14
2019-04-07T07:17:00.585Z,99932.09
2019-04-07T07:19:34.676Z,99928.05
2019-04-07T07:22:16.519Z,99928.87
2019-04-07T07:24:47.190Z,99931.91
2019-04-07T07:27:17.478Z,99933.64
2019-04-07T07:29:47.629Z,99934.48
2019-04-07T07:32:18.563Z,99934.84
2019-04-07T07:34:47.999Z,99934.79
2019-04-07T07:37:17.524Z,99933.85
2019-04-07T07:39:47.141Z,99936.48
2019-04-07T07:42:19.088Z,99934.63
2019-04-07T07:44:48.331Z,99934.53
2019-04-07T07:47:20.851Z,99936.19
2019-04-07T07:49:49.777Z,99936.12
2019-04-07T07:52:21.028Z,99935.56
2019-04-07T07:54:50.874Z,99928.80
2019-04-07T07:57:22.786Z,99939.34
2019-04-07T07:59:52.080Z,99929.46
2019-04-07T08:02:22.010Z,99933.80
2019-04-07T08:04:52.765Z,99937.66
2019-04-07T08:07:23.591Z,99937.12
2019-04-07T08:09:54.364Z,99943.28
2019-04-07T08:12:25.428Z,99945.41
2019-04-07T08:14:57.187Z,99943.09
2019-04-07T08:17:27.575Z,99945.66
2019-04-07T08:19:57.768Z,99944.24
2019-04-07T08:22:32.493Z,99943.25
2019-04-07T08:24:58.825Z,99948.06
2019-04-07T08:27:31.711Z,99940.42
2019-04-07T08:29:59.472Z,99943.84
2019-04-07T08:32:31.989Z,99944.62
2019-04-07T08:35:03.891Z,99941.84
2019-04-07T08:37:31.484Z,99949.69
2019-04-07T08:40:05.037Z,99946.00
2019-04-07T08:42:32.658Z,99951.12
2019-04-07T08:45:03.330Z,99941.23
2019-04-07T08:47:33.450Z,99947.78
2019-04-07T08:50:02.981Z,99948.10
2019-04-07T08:52:33.196Z,99948.35
2019-04-07T08:55:03.083Z,99953.49
2019-04-07T08:57:32.609Z,99961.36
2019-04-07T09:00:05.058Z,99957.67
2019-04-07T09:02:37.053Z,99949.13
2019-04-07T09:05:08.135Z,99949.80
2019-04-07T09:07:39.082Z,99944.70
2019-04-07T09:10:11.476Z,99947.63
2019-04-07T09:12:41.820Z,99944.77
2019-04-07T09:15:13.262Z,99944.09
2019-04-07T09:17:47.155Z,99943.94
2019-04-07T09:20:33.613Z,99943.74
2019-04-07T09:23:11.343Z,99947.14
2019-04-07T09:25:59.500Z,99944.27
2019-04-07T09:28:31.753Z,99945.08
2019-04-07T09:31:04.258Z,99952.12
2019-04-07T09:33:38.874Z,99943.98
2019-04-07T09:36:10.212Z,99944.30
2019-04-07T09:38:42.065Z,99946.80
2019-04-07T09:41:27.486Z,99951.00
2019-04-07T09:44:03.993Z,99952.16
2019-04-07T09:46:51.526Z,99948.81
2019-04-07T09:49:37.908Z,99952.52
2019-04-07T09:52:16.068Z,99961.68
2019-04-07T09:54:59.487Z,99947.58
2019-04-07T09:57:40.891Z,99953.53
2019-04-07T10:00:14.601Z,99955.97
2019-04-07T10:02:49.149Z,99950.83
2019-04-07T10:05:40.239Z,99954.14
2019-04-07T10:08:24.922Z,99938.23
2019-04-07T10:10:59.419Z,99945.22
2019-04-07T10:13:30.730Z,99942.33
2019-04-07T10:16:02.355Z,99949.86
2019-04-07T10:18:50.920Z,99942.62
2019-04-07T10:21:22.210Z,99943.91
2019-04-07T10:24:02.808Z,99938.16
2019-04-07T10:26:39.974Z,99952.44
2019-04-07T10:29:28.990Z,99949.42
2019-04-07T10:32:00.055Z,99949.48
2019-04-07T10:34:43.670Z,99949.02
2019-04-07T10:37:15.588Z,99944.00
2019-04-07T10:39:46.835Z,99952.28
2019-04-07T10:42:30.778Z,99949.16
2019-04-07T10:45:01.931Z,99937.48
2019-04-07T10:47:33.570Z,99939.49
2019-04-07T10:50:08.880Z,99939.30
2019-04-07T10:52:43.748Z,99939.13
2019-04-07T10:55:18.426Z,99946.94
2019-04-07T10:58:05.879Z,99937.91
2019-04-07T11:00:41.154Z,99939.79
2019-04-07T11:03:26.078Z,99933.39
2019-04-07T11:06:00.421Z,99932.37
2019-04-07T11:08:34.558Z,99926.11
2019-04-07T11:11:22.267Z,99934.16
2019-04-07T11:13:56.819Z,99929.85
2019-04-07T11:16:44.208Z,99927.44
2019-04-07T11:19:16.134Z,99924.61
2019-04-07T11:21:47.386Z,99925.50
2019-04-07T11:24:35.232Z,99923.71
2019-04-07T11:27:08.168Z,99916.45
2019-04-07T11:29:39.644Z,99926.50
2019-04-07T11:32:19.930Z,99912.65
2019-04-07T11:34:53.808Z,99915.49
2019-04-07T11:37:27.577Z,99917.45
2019-04-07T11:40:02.241Z,99914.23
2019-04-07T11:42:42.684Z,99915.58
2019-04-07T11:45:16.799Z,99915.02
2019-04-07T11:47:54.501Z,99916.08
2019-04-07T11:50:42.335Z,99915.03
2019-04-07T11:53:19.924Z,99924.28
2019-04-07T11:56:11.239Z,99924.61
2019-04-07T11:58:59.079Z,99916.23
2019-04-07T12:01:49.787Z,99919.75
2019-04-07T12:04:24.039Z,99912.82
2019-04-07T12:07:11.094Z,99913.57
2019-04-07T12:09:59.626Z,99909.17
2019-04-07T12:12:31.182Z,99912.23
2019-04-07T12:15:14.313Z,99924.50
2019-04-07T12:17:52.419Z,99915.00
2019-04-07T12:20:26.997Z,99908.86
2019-04-07T12:22:56.516Z,99913.34
2019-04-07T12:25:29.366Z,99919.39
2019-04-07T12:28:18.880Z,99912.40
2019-04-07T12:31:06.496Z,99914.05
2019-04-07T12:33:52.774Z,99912.66
2019-04-07T12:36:30.215Z,99921.47
2019-04-07T12:38:57.392Z,99913.28
2019-04-07T12:41:32.225Z,99905.59
2019-04-07T12:44:04.526Z,99906.36
2019-04-07T12:46:52.904Z,99906.61
2019-04-07T12:49:35.083Z,99913.72
2019-04-07T12:52:28.055Z,99905.98
2019-04-07T12:55:00.425Z,99903.93
2019-04-07T12:57:39.525Z,99914.23
2019-04-07T13:00:19.174Z,99908.53
2019-04-07T13:02:53.798Z,99903.68
2019-04-07T13:05:39.207Z,99899.08
2019-04-07T13:08:14.461Z,99899.90
2019-04-07T13:11:07.519Z,99905.27
2019-04-07T13:13:53.451Z,99899.27
2019-04-07T13:16:27.838Z,99897.28
2019-04-07T13:19:15.650Z,99899.45
2019-04-07T13:21:57.284Z,99892.28
2019-04-07T13:24:35.147Z,99895.94
2019-04-07T13:27:06.826Z,99890.51
2019-04-07T13:29:44.467Z,99889.63
2019-04-07T13:32:37.132Z,99886.54
2019-04-07T13:35:11.908Z,99898.23
2019-04-07T13:37:52.250Z,99888.65
2019-04-07T13:40:26.424Z,99892.83
2019-04-07T13:43:01.953Z,99892.22
2019-04-07T13:45:32.970Z,99884.92
2019-04-07T13:48:20.844Z,99884.61
2019-04-07T13:51:02.092Z,99896.17
2019-04-07T13:53:36.780Z,99887.30
2019-04-07T13:56:27.511Z,99886.95
2019-04-07T13:59:02.088Z,99888.38
2019-04-07T14:01:53.377Z,99880.88
2019-04-07T14:04:42.391Z,99875.34
2019-04-07T14:07:22.431Z,99888.19
2019-04-07T14:09:57.154Z,99878.25
2019-04-07T14:12:37.895Z,99872.75
2019-04-07T14:15:12.529Z,99875.37
2019-04-07T14:17:46.201Z,99878.78
2019-04-07T14:20:26.878Z,99877.70
2019-04-07T14:23:04.313Z,99873.95
2019-04-07T14:25:47.319Z,99881.43
2019-04-07T14:28:20.504Z,99874.70
2019-04-07T14:30:57.364Z,99882.93
2019-04-07T14:33:31.845Z,99874.80
2019-04-07T14:36:19.584Z,99872.63
2019-04-07T14:39:00.070Z,99872.44
2019-04-07T14:41:37.845Z,99872.39
2019-04-07T14:44:21.442Z,99872.09
2019-04-07T14:46:55.598Z,99868.58
2019-04-07T14:49:30.574Z,99873.95
2019-04-07T14:52:03.621Z,99872.88
2019-04-07T14:54:57.130Z,99872.22
2019-04-07T14:57:28.758Z,99874.58
2019-04-07T15:00:00.064Z,99866.30
2019-04-07T15:02:30.235Z,99867.75
2019-04-07T15:05:03.044Z,99872.87
2019-04-07T15:07:50.489Z,99867.22
2019-04-07T15:10:21.730Z,99873.34
2019-04-07T15:13:05.317Z,99870.20
2019-04-07T15:15:35.676Z,99865.54
2019-04-07T15:18:05.226Z,99868.75
2019-04-07T15:20:34.690Z,99865.58
2019-04-07T15:23:04.444Z,99870.06
2019-04-07T15:25:34.096Z,99868.68
2019-04-07T15:28:04.341Z,99867.58
2019-04-07T15:30:33.891Z,99869.38
2019-04-07T15:33:04.239Z,99870.78
2019-04-07T15:35:35.235Z,99872.97
2019-04-07T15:38:05.406Z,99864.98
2019-04-07T15:40:36.479Z,99872.97
2019-04-07T15:43:09.143Z,99873.92
2019-04-07T15:45:39.720Z,99868.49
2019-04-07T15:48:08.848Z,99872.97
2019-04-07T15:50:38.330Z,99870.47
2019-04-07T15:53:07.852Z,99869.58
2019-04-07T15:55:47.606Z,99871.87
2019-04-07T15:58:09.574Z,99875.46
2019-04-07T16:00:39.136Z,99873.30
2019-04-07T16:03:08.621Z,99881.41
2019-04-07T16:05:42.413Z,99876.98
2019-04-07T16:08:11.549Z,99869.08
2019-04-07T16:10:41.332Z,99878.47
2019-04-07T16:13:11.051Z,99871.05
2019-04-07T16:15:43.618Z,99877.38
2019-04-07T16:18:12.551Z,99878.78
2019-04-07T16:20:43.163Z,99885.66
2019-04-07T16:23:16.812Z,99881.72
2019-04-07T16:25:44.385Z,99879.58
2019-04-07T16:28:15.967Z,99885.91
2019-04-07T16:30:48.528Z,99891.33
2019-04-07T16:33:17.194Z,99884.73
2019-04-07T16:35:52.784Z,99886.58
2019-04-07T16:38:18.258Z,99884.98
2019-04-07T16:40:48.021Z,99893.19
2019-04-07T16:43:18.989Z,99893.38
2019-04-07T16:45:48.860Z,99888.13
2019-04-07T16:48:18.440Z,99893.11
2019-04-07T16:50:51.825Z,99893.27
2019-04-07T16:53:19.355Z,99895.23
2019-04-07T16:55:53.787Z,99907.80
2019-04-07T16:58:21.348Z,99895.92
2019-04-07T17:00:51.958Z,99899.21
2019-04-07T17:03:21.745Z,99900.78
2019-04-07T17:05:55.670Z,99905.36
2019-04-07T17:08:24.684Z,99898.33
2019-04-07T17:10:53.990Z,99907.43
2019-04-07T17:13:32.131Z,99901.45
2019-04-07T17:15:55.246Z,99899.38
2019-04-07T17:18:40.910Z,99906.69
2019-04-07T17:21:15.051Z,99906.42
2019-04-07T17:23:45.530Z,99908.47
2019-04-07T17:26:15.182Z,99910.91
2019-04-07T17:28:47.147Z,99919.59
2019-04-07T17:31:16.292Z,99914.90
2019-04-07T17:33:47.116Z,99925.86
2019-04-07T17:36:19.691Z,99919.35
2019-04-07T17:38:50.406Z,99924.52
2019-04-07T17:41:20.209Z,99929.27
2019-04-07T17:44:01.168Z,99923.30
2019-04-07T17:46:47.327Z,99934.22
2019-04-07T17:49:35.682Z,99934.91
2019-04-07T17:52:24.737Z,99932.52
2019-04-07T17:55:10.767Z,99933.80
2019-04-07T17:57:48.057Z,99937.17
2019-04-07T18:00:36.281Z,99939.20
2019-04-07T18:03:22.512Z,99943.91
2019-04-07T18:05:59.293Z,99945.00
2019-04-07T18:08:47.383Z,99947.02
2019-04-07T18:11:32.855Z,99947.69
2019-04-07T18:14:05.750Z,99958.48
2019-04-07T18:16:37.381Z,99958.70
2019-04-07T18:19:13.058Z,99962.86
2019-04-07T18:21:48.582Z,99967.03
2019-04-07T18:24:21.394Z,99965.88
2019-04-07T18:27:02.319Z,99974.53
2019-04-07T18:29:35.089Z,99981.33
2019-04-07T18:32:10.962Z,99982.83
2019-04-07T18:34:53.091Z,99985.65
2019-04-07T18:37:36.409Z,99982.66
2019-04-07T18:40:27.307Z,99988.11
2019-04-07T18:43:02.408Z,99994.95
2019-04-07T18:45:45.909Z,99993.73
2019-04-07T18:48:32.328Z,100007.14
2019-04-07T18:51:23.221Z,100001.48
2019-04-07T18:54:12.144Z,100010.02
2019-04-07T18:56:47.519Z,100013.27
2019-04-07T18:59:20.426Z,100012.06
2019-04-07T19:01:55.729Z,100020.53
2019-04-07T19:04:45.705Z,100023.27
2019-04-07T19:07:21.279Z,100026.43
2019-04-07T19:10:16.652Z,100028.69
2019-04-07T19:12:43.502Z,100032.29
2019-04-07T19:15:15.716Z,100029.26
2019-04-07T19:17:48.120Z,100032.41
2019-04-07T19:20:22.904Z,100035.55
2019-04-07T19:22:54.454Z,100029.85
2019-04-07T19:25:31.864Z,100043.69
2019-04-07T19:28:04.503Z,100038.45
2019-04-07T19:30:51.106Z,100035.42
2019-04-07T19:33:39.722Z,100035.50
2019-04-07T19:36:12.473Z,100043.05
2019-04-07T19:38:47.498Z,100040.47
2019-04-07T19:41:20.542Z,100032.12
2019-04-07T19:43:53.199Z,100036.59
2019-04-07T19:46:31.564Z,100035.31
2019-04-07T19:49:18.953Z,100037.14
2019-04-07T19:51:50.844Z,100041.15
2019-04-07T19:54:35.631Z,100032.80
2019-04-07T19:57:09.172Z,100041.21
2019-04-07T19:59:52.789Z,100029.30
2019-04-07T20:02:40.581Z,100032.00
2019-04-07T20:05:24.090Z,100029.82
2019-04-07T20:08:14.237Z,100038.25
2019-04-07T20:10:45.611Z,100038.70
2019-04-07T20:13:38.352Z,100036.54
2019-04-07T20:16:11.834Z,100037.45
2019-04-07T20:18:46.587Z,100042.80
2019-04-07T20:21:19.613Z,100045.03
2019-04-07T20:24:11.066Z,100044.65
2019-04-07T20:26:45.459Z,100042.47
2019-04-07T20:29:25.821Z,100043.84
2019-04-07T20:31:57.089Z,100044.76
2019-04-07T20:34:47.151Z,100043.45
2019-04-07T20:37:23.720Z,100041.73
2019-04-07T20:39:56.878Z,100040.42
2019-04-07T20:42:31.142Z,100050.63
2019-04-07T20:45:07.050Z,100047.55
2019-04-07T20:47:51.521Z,100049.76
2019-04-07T20:50:35.496Z,100052.44
2019-04-07T20:53:12.500Z,100051.58
2019-04-07T20:55:56.185Z,100053.83
2019-04-07T20:58:46.441Z,100054.72
2019-04-07T21:01:16.611Z,100052.55
2019-04-07T21:03:51.939Z,100051.25
2019-04-07T21:06:35.827Z,100056.13
2019-04-07T21:09:15.379Z,100057.02
2019-04-07T21:11:56.714Z,100061.44
2019-04-07T21:14:34.684Z,100058.80
2019-04-07T21:17:07.410Z,100057.05
2019-04-07T21:19:38.872Z,100056.16
2019-04-07T21:22:25.063Z,100055.28
2019-04-07T21:24:59.109Z,100057.96
2019-04-07T21:27:49.087Z,100053.99
2019-04-07T21:30:20.729Z,100059.77
2019-04-07T21:32:52.936Z,100057.56
2019-04-07T21:35:34.775Z,100062.45
2019-04-07T21:38:19.649Z,100060.67
2019-04-07T21:40:51.430Z,100057.16
2019-04-07T21:43:27.801Z,100059.81
2019-04-07T21:46:00.955Z,100058.94
2019-04-07T21:48:32.139Z,100063.37
2019-04-07T21:51:16.827Z,100057.18
2019-04-07T21:53:55.102Z,100064.69
2019-04-07T21:56:32.789Z,100065.08
2019-04-07T21:59:20.099Z,100071.28
2019-04-07T22:01:51.262Z,100065.95
2019-04-07T22:04:29.084Z,100065.96
2019-04-07T22:07:17.470Z,100068.61
2019-04-07T22:09:50.693Z,100063.76
2019-04-07T22:12:20.260Z,100068.17
2019-04-07T22:14:50.847Z,100066.39
2019-04-07T22:17:21.321Z,100067.28
2019-04-07T22:19:50.938Z,100071.27
2019-04-07T22:22:20.380Z,100073.88
2019-04-07T22:24:50.663Z,100077.42
2019-04-07T22:27:24.469Z,100072.99
2019-04-07T22:29:51.334Z,100076.54
2019-04-07T22:32:23.124Z,100081.37
2019-04-07T22:34:53.093Z,100076.97
2019-04-07T22:37:23.475Z,100079.62
2019-04-07T22:39:53.096Z,100082.27
2019-04-07T22:42:22.653Z,100080.03
2019-04-07T22:44:54.321Z,100086.22
2019-04-07T22:47:23.648Z,100082.67
2019-04-07T22:49:53.240Z,100076.92
2019-04-07T22:52:22.672Z,100082.65
2019-04-07T22:54:52.141Z,100079.11
2019-04-07T22:57:21.874Z,100083.52
2019-04-07T22:59:52.334Z,100079.98
2019-04-07T23:02:22.133Z,100086.12
2019-04-07T23:04:52.456Z,100081.70
2019-04-07T23:07:21.954Z,100080.84
2019-04-07T23:09:51.780Z,100076.84
2019-04-07T23:12:21.454Z,100084.77
2019-04-07T23:14:50.954Z,100086.52
2019-04-07T23:17:21.396Z,100085.16
2019-04-07T23:19:50.884Z,100086.06
2019-04-07T23:22:20.331Z,100083.41
2019-04-07T23:24:49.813Z,100082.94
2019-04-07T23:27:20.048Z,100086.02
2019-04-07T23:29:50.679Z,100086.40
2019-04-07T23:32:21.244Z,100082.00
2019-04-07T23:34:50.759Z,100080.20
2019-04-07T23:37:20.209Z,100090.73
2019-04-07T23:39:49.746Z,100089.84
2019-04-07T23:42:20.374Z,100094.22
2019-04-07T23:44:49.942Z,100083.61
2019-04-07T23:47:19.499Z,100091.95
2019-04-07T23:49:49.051Z,100085.77
2019-04-07T23:52:18.731Z,100097.65
2019-04-07T23:54:48.346Z,100087.50
2019-04-07T23:57:17.805Z,100092.78
2019-04-07T23:59:47.269Z,100087.48
